• Join FlightAware (Why Join?)
  • Login
  • US Flag 
04:51PM EDT


 

Airport Tracker/Info


-or-


 

Live Flight TrackerFlight Track Log ✈ N903DA ✈ 12-May-2012 ✈ KBOS - KATL

Flight Track Log - Related Links

Times and Time Zones

All times are in EDT time to prevent confusion due to time zone crossing. See the N903DA flight status page for this flight to view local times or setup timezone preferences in your user account.

Time Position Orientation Groundspeed Altitude Reporting Facility
EDT Latitude Longitude Course Direction KTS MPH feet Rate Location/Type
11:19AM 42.3500 -71.0167 160° South 172 198 800  Level Boston TRACON
11:20AM 42.3167 -71.0000 90° East 227 261 2,400 2,520 Climbing Boston TRACON
11:21AM 42.3167 -70.9167 75° East 240 276 5,400 2,760 Climbing Boston TRACON
11:22AM 42.3333 -70.8333 111° Southeast 256 295 8,000 2,340 Climbing Boston TRACON
11:23AM 42.3086 -70.7472 195° South 320 368 10,100 2,100 Climbing Boston Center
11:24AM 42.2319 -70.7744 262° West 230 265 12,300 1,800 Climbing Boston Center
11:25AM 42.2189 -70.8983 267° West 226 260 13,700 1,500 Climbing Boston Center
11:26AM 42.2128 -71.0497 270° West 315 362 15,300 1,800 Climbing Boston Center
11:27AM 42.2122 -71.1814 267° West 380 437 17,300 1,800 Climbing Boston Center
11:28AM 42.2056 -71.3497 270° West 410 472 18,900 1,380 Climbing Boston Center
11:29AM 42.2047 -71.4928 268° West 416 479 20,100 1,380 Climbing Boston Center
11:30AM 42.1997 -71.6639 267° West 422 486 21,700 1,680 Climbing Boston Center
11:31AM 42.1944 -71.8208 266° West 422 486 23,500 1,440 Climbing Boston Center
11:32AM 42.1869 -71.9806 265° West 422 486 24,600 1,080 Climbing Boston Center
11:33AM 42.1769 -72.1431 254° West 428 493 25,700 1,380 Climbing Boston Center
11:34AM 42.1419 -72.3028 252° West 433 498 27,400 1,440 Climbing Boston Center
11:35AM 42.1044 -72.4597 251° West 439 505 28,600 1,260 Climbing Boston Center
11:36AM 42.0647 -72.6136 253° West 439 505 30,000 660 Climbing Boston Center
11:37AM 42.0311 -72.7642 252° West 434 499 30,000  Level Boston Center
11:38AM 41.9950 -72.9150 248° West 434 499 30,000  Level Boston Center
11:39AM 41.9528 -73.0542 218° Southwest 434 499 30,000  Level Boston Center
11:40AM 41.8542 -73.1592 211° Southwest 434 499 30,000  Level Boston Center
11:41AM 41.7431 -73.2469 220° Southwest 443 510 30,000  Level Boston Center
11:42AM 41.6464 -73.3569 230° Southwest 458 527 30,000  Level Boston Center
11:43AM 41.5681 -73.4833 231° Southwest 452 520 30,000  Level Boston Center
11:45AM 41.4225 -73.7206 230° Southwest 445 512 30,000  Level New York Center
11:46AM 41.3269 -73.8736 230° Southwest 445 512 30,000  Level New York Center
11:47AM 41.2467 -73.9997 230° Southwest 445 512 30,000  Level New York Center
11:48AM 41.1661 -74.1253 230° Southwest 445 512 30,000  Level New York Center
11:49AM 41.0875 -74.2508 229° Southwest 445 512 30,000  Level New York Center
11:50AM 41.0067 -74.3731 229° Southwest 445 512 30,000  Level New York Center
11:51AM 40.9258 -74.4978 229° Southwest 445 512 30,000  Level New York Center
11:52AM 40.8469 -74.6197 229° Southwest 445 512 30,000  Level New York Center
11:53AM 40.7656 -74.7411 229° Southwest 445 512 30,000  Level New York Center
11:54AM 40.6844 -74.8622 230° Southwest 445 512 30,000  Level New York Center
11:55AM 40.5897 -75.0097 229° Southwest 445 512 30,000  Level New York Center
11:56AM 40.5103 -75.1278 229° Southwest 445 512 30,100 420 Climbing New York Center
11:57AM 40.4375 -75.2375 229° Southwest 452 520 30,900 900 Climbing New York Center
11:58AM 40.3556 -75.3603 229° Southwest 452 520 32,000 540 Climbing New York Center
11:59AM 40.2692 -75.4906 248° West 447 514 32,000  Level New York Center
12:00PM 40.2261 -75.6317 254° West 420 483 32,000  Level New York Center
12:01PM 40.2003 -75.7494 247° West 420 483 32,000  Level New York Center
12:02PM 40.1472 -75.9142 230° Southwest 415 478 32,000  Level New York Center
12:03PM 40.0689 -76.0358 229° Southwest 432 497 32,000  Level New York Center
12:04PM 39.9886 -76.1544 232° Southwest 448 516 32,000  Level New York Center
12:05PM 39.9208 -76.2656 242° Southwest 443 510 32,000  Level New York Center
12:06PM 39.8667 -76.3967 261° West 416 479 32,000  Level New York Center
12:07PM 39.8428 -76.5967 262° West 416 479 32,000  Level Washington Center
12:08PM 39.8269 -76.7425 251° West 416 479 32,000  Level Washington Center
12:09PM 39.7900 -76.8822 224° Southwest 416 479 32,000  Level Washington Center
12:10PM 39.7033 -76.9914 224° Southwest 409 471 32,000  Level Washington Center
12:11PM 39.6208 -77.0947 223° Southwest 414 476 32,000  Level Washington Center
12:12PM 39.5319 -77.2006 222° Southwest 419 482 32,000  Level Washington Center
12:13PM 39.4431 -77.3033 224° Southwest 431 496 32,000 -600 Level Washington Center
12:14PM 39.3583 -77.4089 222° Southwest 436 502 30,900 -1,020 Descending Washington Center
12:15PM 39.2692 -77.5139 223° Southwest 436 502 30,000 -480 Descending Washington Center
12:16PM 39.1819 -77.6186 222° Southwest 436 502 30,000  Level Washington Center
12:17PM 39.0819 -77.7361 224° Southwest 436 502 30,000  Level Washington Center
12:18PM 38.9944 -77.8431 223° Southwest 431 496 30,000  Level Washington Center
12:19PM 38.9050 -77.9497 222° Southwest 439 505 30,000  Level Washington Center
12:20PM 38.8175 -78.0508 223° Southwest 433 498 30,000  Level Washington Center
12:21PM 38.7275 -78.1569 222° Southwest 433 498 30,000  Level Washington Center
12:22PM 38.6378 -78.2603 222° Southwest 433 498 30,000  Level Washington Center
12:23PM 38.5500 -78.3606 222° Southwest 433 498 30,000  Level Washington Center
12:24PM 38.4622 -78.4606 222° Southwest 433 498 30,000  Level Washington Center
12:25PM 38.3742 -78.5633 222° Southwest 433 498 30,000  Level Washington Center
12:26PM 38.2883 -78.6631 225° Southwest 433 498 30,000  Level Washington Center
12:27PM 38.2150 -78.7553 222° Southwest 425 489 30,000  Level Washington Center
12:28PM 38.1289 -78.8544 222° Southwest 420 483 30,000  Level Washington Center
12:29PM 38.0297 -78.9686 221° Southwest 428 493 30,000  Level Washington Center
12:30PM 37.9436 -79.0650 225° Southwest 428 493 30,000  Level Washington Center
12:31PM 37.8592 -79.1717 228° Southwest 428 493 30,000  Level Washington Center
12:32PM 37.7808 -79.2808 228° Southwest 433 498 30,000  Level Washington Center
12:33PM 37.6981 -79.3950 227° Southwest 437 503 30,000  Level Washington Center
12:34PM 37.6172 -79.5061 226° Southwest 437 503 30,000  Level Washington Center
12:35PM 37.5364 -79.6119 227° Southwest 432 497 30,000  Level Washington Center
12:36PM 37.4556 -79.7228 228° Southwest 432 497 30,000  Level Washington Center
12:37PM 37.3767 -79.8336 227° Southwest 432 497 30,000  Level Washington Center
12:39PM 37.1894 -80.0842 227° Southwest 424 488 30,000  Level Atlanta Center
12:40PM 37.1114 -80.1894 227° Southwest 424 488 30,000  Level Atlanta Center
12:41PM 37.0394 -80.2867 226° Southwest 424 488 30,000  Level Atlanta Center
12:42PM 36.9592 -80.3917 226° Southwest 424 488 30,000  Level Atlanta Center
12:43PM 36.8789 -80.4942 228° Southwest 424 488 30,000  Level Atlanta Center
12:44PM 36.8025 -80.5986 228° Southwest 424 488 30,000  Level Atlanta Center
12:45PM 36.7181 -80.7161 227° Southwest 418 481 30,000  Level Atlanta Center
12:46PM 36.6397 -80.8203 226° Southwest 410 472 30,000  Level Atlanta Center
12:47PM 36.5589 -80.9244 226° Southwest 410 472 30,000  Level Atlanta Center
12:48PM 36.4861 -81.0175 228° Southwest 410 472 30,000  Level Atlanta Center
12:49PM 36.4094 -81.1236 227° Southwest 410 472 30,000  Level Atlanta Center
12:50PM 36.3286 -81.2297 226° Southwest 415 478 30,000  Level Atlanta Center
12:51PM 36.2475 -81.3356 228° Southwest 415 478 30,000  Level Atlanta Center
12:52PM 36.1686 -81.4436 226° Southwest 415 478 30,000  Level Atlanta Center
12:53PM 36.0872 -81.5464 227° Southwest 415 478 30,000  Level Atlanta Center
12:54PM 36.0100 -81.6489 226° Southwest 415 478 30,000  Level Atlanta Center
12:55PM 35.9286 -81.7539 225° Southwest 415 478 30,000  Level Atlanta Center
12:56PM 35.8489 -81.8536 227° Southwest 415 478 30,000  Level Atlanta Center
12:57PM 35.7694 -81.9581 225° Southwest 415 478 30,000  Level Atlanta Center
12:58PM 35.6856 -82.0625 227° Southwest 415 478 30,000  Level Atlanta Center
12:59PM 35.5956 -82.1794 225° Southwest 421 484 30,000 -120 Level Atlanta Center
01:00PM 35.5117 -82.2833 223° Southwest 431 496 29,800 -600 Descending Atlanta Center
01:01PM 35.4256 -82.3822 223° Southwest 431 496 28,900 -1,020 Descending Atlanta Center
01:02PM 35.3369 -82.4831 221° Southwest 431 496 27,800 -900 Descending Atlanta Center
01:03PM 35.2628 -82.5608 222° Southwest 436 502 27,100 -900 Descending Atlanta Center
01:04PM 35.1639 -82.6694 222° Southwest 441 507 26,000 -1,200 Descending Atlanta Center
01:05PM 35.0775 -82.7647 222° Southwest 436 502 24,800 -1,020 Descending Atlanta Center
01:06PM 34.9906 -82.8597 219° Southwest 436 502 24,000 -420 Descending Atlanta Center
01:07PM 34.8914 -82.9575 225° Southwest 431 496 24,000  Level Atlanta Center
01:08PM 34.8108 -83.0547 223° Southwest 418 481 24,000  Level Atlanta Center
01:09PM 34.7261 -83.1492 223° Southwest 418 481 24,000  Level Atlanta Center
01:10PM 34.6661 -83.2181 222° Southwest 418 481 24,000  Level Atlanta Center
01:11PM 34.5644 -83.3275 221° Southwest 418 481 24,000  Level Atlanta Center
01:12PM 34.4772 -83.4189 222° Southwest 418 481 24,000 -480 Level Atlanta Center
01:13PM 34.3900 -83.5153 222° Southwest 413 475 23,100 -1,800 Descending Atlanta Center
01:14PM 34.3089 -83.6036 222° Southwest 408 470 20,400 -2,640 Descending Atlanta Center
01:15PM 34.2300 -83.6894 222° Southwest 399 459 17,900 -2,700 Descending Atlanta Center
01:16PM 34.1508 -83.7753 222° Southwest 387 445 15,100 -1,980 Descending Atlanta Center
01:17PM 34.0675 -83.8658 220° Southwest 376 433 14,000 -720 Descending Atlanta Center
01:18PM 34.0167 -83.9167 226° Southwest 368 423 14,000  Level Atlanta TRACON
01:19PM 33.9500 -84.0000 214° Southwest 366 421 14,000 -1,020 Level Atlanta TRACON
01:20PM 33.8667 -84.0667 214° Southwest 366 421 12,000 -1,020 Descending Atlanta TRACON
01:21PM 33.7833 -84.1333 228° Southwest 331 381 12,000  Level Atlanta TRACON
01:22PM 33.7333 -84.2000 270° West 297 342 12,000  Level Atlanta TRACON
01:23PM 33.7333 -84.3000 270° West 293 337 12,000  Level Atlanta TRACON
01:24PM 33.7333 -84.4000 270° West 285 328 12,000 -540 Level Atlanta TRACON
01:25PM 33.7333 -84.4833 270° West 249 287 11,000 -1,440 Descending Atlanta TRACON
01:26PM 33.7333 -84.5667 270° West 237 273 9,200 -1,740 Descending Atlanta TRACON
01:27PM 33.7333 -84.6500 270° West 241 277 7,600 -840 Descending Atlanta TRACON
01:29PM 33.7333 -84.8000 270° West 233 268 6,800 -720 Descending Atlanta TRACON
01:30PM 33.7333 -84.8833 180° South 205 236 5,600 -960 Descending Atlanta TRACON
01:31PM 33.6833 -84.8833 140° Southeast 178 205 5,000 -300 Descending Atlanta TRACON
01:32PM 33.6500 -84.8500 90° East 178 205 5,000  Level Atlanta TRACON
01:33PM 33.6500 -84.8000 90° East 185 213 5,000  Level Atlanta TRACON
01:34PM 33.6500 -84.7333 90° East 188 216 5,000 -120 Level Atlanta TRACON
01:35PM 33.6500 -84.6667 90° East 178 205 4,800 -600 Descending Atlanta TRACON
01:36PM 33.6500 -84.6167 90° East 172 198 3,800 -960 Descending Atlanta TRACON
01:37PM 33.6500 -84.5500 90° East 167 192 2,900 -900 Descending Atlanta TRACON
01:38PM 33.6500 -84.5000 103° East 157 181 2,100 -840 Descending Atlanta TRACON
01:47PM 33.6333 -84.4167 103° East  Level FlightAware Approximate